createdAt,value
2022-12-01T00:01:21.059Z,30.35
2022-12-01T00:03:48.253Z,31.33
2022-12-01T00:06:18.010Z,29.30
2022-12-01T00:09:06.156Z,27.23
2022-12-01T00:11:34.767Z,32.13
2022-12-01T00:14:03.920Z,27.58
2022-12-01T00:16:31.780Z,29.08
2022-12-01T00:18:58.914Z,22.33
2022-12-01T00:21:26.832Z,27.23
2022-12-01T00:23:55.962Z,23.83
2022-12-01T00:26:23.819Z,21.50
2022-12-01T00:28:55.668Z,24.23
2022-12-01T00:31:23.285Z,27.17
2022-12-01T00:33:50.749Z,21.23
2022-12-01T00:36:18.013Z,21.15
2022-12-01T00:38:45.223Z,22.70
2022-12-01T00:41:12.076Z,21.33
2022-12-01T00:43:39.893Z,22.67
2022-12-01T00:46:06.949Z,22.35
2022-12-01T00:48:34.025Z,19.48
2022-12-01T00:51:00.934Z,22.90
2022-12-01T00:53:27.702Z,20.98
2022-12-01T00:55:54.724Z,22.77
2022-12-01T00:58:22.283Z,20.08
2022-12-01T01:00:49.817Z,21.55
2022-12-01T01:03:16.886Z,20.83
2022-12-01T01:05:43.952Z,19.92
2022-12-01T01:08:13.777Z,16.57
2022-12-01T01:10:45.765Z,22.42
2022-12-01T01:13:14.159Z,19.80
2022-12-01T01:15:40.995Z,21.12
2022-12-01T01:18:09.716Z,18.27
2022-12-01T01:20:36.522Z,17.43
2022-12-01T01:23:03.444Z,16.67
2022-12-01T01:25:32.332Z,17.23
2022-12-01T01:27:59.247Z,20.15
2022-12-01T01:30:26.194Z,20.55
2022-12-01T01:32:53.024Z,19.07
2022-12-01T01:35:19.971Z,21.23
2022-12-01T01:37:46.749Z,20.45
2022-12-01T01:40:13.672Z,23.33
2022-12-01T01:42:40.395Z,20.33
2022-12-01T01:45:20.773Z,21.57
2022-12-01T01:47:50.252Z,31.40
2022-12-01T01:50:20.503Z,28.70
2022-12-01T01:52:52.061Z,29.50
2022-12-01T01:55:19.596Z,21.55
2022-12-01T01:57:46.896Z,22.43
2022-12-01T02:00:17.197Z,19.77
2022-12-01T02:02:46.753Z,21.55
2022-12-01T02:05:24.538Z,17.00
2022-12-01T02:07:55.340Z,18.67
2022-12-01T02:10:28.478Z,19.20
2022-12-01T02:13:19.954Z,17.92
2022-12-01T02:16:15.797Z,18.67
2022-12-01T02:19:14.883Z,21.15
2022-12-01T02:22:00.116Z,19.00
2022-12-01T02:25:00.199Z,18.57
2022-12-01T02:27:37.857Z,17.73
2022-12-01T02:30:17.967Z,19.73
2022-12-01T02:33:06.278Z,18.45
2022-12-01T02:35:57.799Z,22.60
2022-12-01T02:38:39.587Z,20.00
2022-12-01T02:41:30.290Z,17.23
2022-12-01T02:44:08.103Z,17.90
2022-12-01T02:46:41.813Z,17.80
2022-12-01T02:49:15.655Z,16.75
2022-12-01T02:51:44.898Z,22.47
2022-12-01T02:54:14.948Z,17.73
2022-12-01T02:56:45.078Z,16.58
2022-12-01T02:59:13.625Z,19.98
2022-12-01T03:01:50.855Z,19.10
2022-12-01T03:04:36.110Z,23.00
2022-12-01T03:07:19.736Z,21.83
2022-12-01T03:09:51.249Z,24.95
2022-12-01T03:12:55.099Z,21.40
2022-12-01T03:15:35.922Z,21.37
2022-12-01T03:18:19.883Z,18.07
2022-12-01T03:21:05.733Z,19.58
2022-12-01T03:23:37.649Z,19.00
2022-12-01T03:26:07.641Z,21.12
2022-12-01T03:28:40.186Z,19.73
2022-12-01T03:31:12.122Z,28.13
2022-12-01T03:33:49.748Z,22.80
2022-12-01T03:36:29.364Z,22.15
2022-12-01T03:39:01.342Z,23.58
2022-12-01T03:41:37.493Z,21.98
2022-12-01T03:44:12.223Z,28.10
2022-12-01T03:47:00.529Z,23.25
2022-12-01T03:49:28.314Z,26.92
2022-12-01T03:52:19.746Z,25.35
2022-12-01T03:54:55.777Z,24.15
2022-12-01T03:57:38.369Z,25.13
2022-12-01T04:00:08.522Z,33.22
2022-12-01T04:02:37.453Z,27.10
2022-12-01T04:05:06.235Z,25.27
2022-12-01T04:07:33.070Z,31.23
2022-12-01T04:09:59.926Z,22.80
2022-12-01T04:12:29.647Z,23.33
2022-12-01T04:15:01.270Z,25.98
2022-12-01T04:17:28.837Z,26.40
2022-12-01T04:19:55.877Z,22.65
2022-12-01T04:22:23.459Z,21.80
2022-12-01T04:24:52.166Z,22.37
2022-12-01T04:27:20.036Z,21.10
2022-12-01T04:29:47.261Z,21.17
2022-12-01T04:32:14.536Z,18.50
2022-12-01T04:34:41.333Z,21.50
2022-12-01T04:37:10.039Z,24.50
2022-12-01T04:39:37.068Z,23.83
2022-12-01T04:42:04.649Z,23.10
2022-12-01T04:44:34.765Z,22.20
2022-12-01T04:47:03.514Z,23.87
2022-12-01T04:49:30.741Z,23.60
2022-12-01T04:51:57.586Z,25.37
2022-12-01T04:54:24.773Z,26.10
2022-12-01T04:56:51.767Z,22.85
2022-12-01T04:59:18.677Z,22.57
2022-12-01T05:01:48.010Z,24.70
2022-12-01T05:04:15.585Z,27.87
2022-12-01T05:06:42.905Z,24.55
2022-12-01T05:09:16.905Z,26.77
2022-12-01T05:11:44.498Z,29.30
2022-12-01T05:14:11.264Z,43.67
2022-12-01T05:16:38.447Z,27.85
2022-12-01T05:19:25.240Z,30.35
2022-12-01T05:21:52.229Z,24.50
2022-12-01T05:24:20.827Z,18.80
2022-12-01T05:26:48.111Z,22.15
2022-12-01T05:29:15.308Z,28.87
2022-12-01T05:31:42.167Z,26.98
2022-12-01T05:34:09.459Z,27.50
2022-12-01T05:36:36.562Z,28.47
2022-12-01T05:39:04.516Z,22.48
2022-12-01T05:41:31.288Z,23.90
2022-12-01T05:43:58.235Z,28.90
2022-12-01T05:46:25.116Z,31.37
2022-12-01T05:48:52.318Z,23.13
2022-12-01T05:51:19.146Z,25.40
2022-12-01T05:53:46.064Z,28.52
2022-12-01T05:56:12.910Z,28.05
2022-12-01T05:58:39.812Z,28.65
2022-12-01T06:01:06.966Z,26.93
2022-12-01T06:03:33.790Z,24.25
2022-12-01T06:06:00.971Z,28.12
2022-12-01T06:08:27.823Z,26.50
2022-12-01T06:10:54.832Z,28.45
2022-12-01T06:13:21.779Z,32.90
2022-12-01T06:16:03.869Z,25.23
2022-12-01T06:18:33.453Z,25.50
2022-12-01T06:21:00.942Z,31.62
2022-12-01T06:23:30.609Z,30.25
2022-12-01T06:25:58.772Z,30.70
2022-12-01T06:28:25.575Z,23.55
2022-12-01T06:30:54.515Z,27.80
2022-12-01T06:33:24.773Z,26.87
2022-12-01T06:36:02.456Z,27.08
2022-12-01T06:38:34.085Z,21.17
2022-12-01T06:41:01.231Z,25.00
2022-12-01T06:43:28.648Z,24.90
2022-12-01T06:46:01.298Z,24.63
2022-12-01T06:48:29.664Z,26.95
2022-12-01T06:51:00.561Z,30.03
2022-12-01T06:53:28.650Z,23.50
2022-12-01T06:56:01.046Z,25.90
2022-12-01T06:58:28.437Z,24.35
2022-12-01T07:00:55.709Z,25.25
2022-12-01T07:03:22.610Z,26.43
2022-12-01T07:06:00.446Z,25.80
2022-12-01T07:08:28.828Z,27.37
2022-12-01T07:11:04.491Z,30.85
2022-12-01T07:13:33.819Z,43.47
2022-12-01T07:16:04.802Z,56.57
2022-12-01T07:18:32.360Z,52.30
2022-12-01T07:21:01.489Z,49.47
2022-12-01T07:23:28.510Z,43.60
2022-12-01T07:26:06.778Z,43.83
2022-12-01T07:28:36.443Z,37.43
2022-12-01T07:31:11.382Z,36.50
2022-12-01T07:33:38.559Z,34.25
2022-12-01T07:36:06.379Z,28.17
2022-12-01T07:38:34.771Z,29.90
2022-12-01T07:41:10.185Z,26.73
2022-12-01T07:43:38.224Z,24.15
2022-12-01T07:46:05.378Z,23.80
2022-12-01T07:48:32.296Z,21.90
2022-12-01T07:50:59.060Z,21.12
2022-12-01T07:53:25.783Z,20.10
2022-12-01T07:55:55.700Z,21.15
2022-12-01T07:58:22.493Z,23.50
2022-12-01T08:00:49.327Z,20.98
2022-12-01T08:03:16.352Z,20.17
2022-12-01T08:05:43.150Z,20.53
2022-12-01T08:08:10.143Z,19.15
2022-12-01T08:10:37.592Z,22.70
2022-12-01T08:13:04.517Z,26.73
2022-12-01T08:15:31.345Z,24.08
2022-12-01T08:18:00.979Z,23.17
2022-12-01T08:20:27.928Z,18.90
2022-12-01T08:22:54.742Z,18.40
2022-12-01T08:25:21.538Z,22.92
2022-12-01T08:27:49.238Z,18.33
2022-12-01T08:30:16.122Z,18.47
2022-12-01T08:32:42.927Z,21.40
2022-12-01T08:35:10.281Z,19.90
2022-12-01T08:37:37.042Z,17.20
2022-12-01T08:40:04.425Z,17.70
2022-12-01T08:42:31.259Z,22.23
2022-12-01T08:44:58.015Z,21.12
2022-12-01T08:47:24.910Z,14.70
2022-12-01T08:49:51.755Z,17.73
2022-12-01T08:52:18.608Z,16.50
2022-12-01T08:54:45.425Z,19.33
2022-12-01T08:57:12.330Z,19.48
2022-12-01T08:59:39.194Z,18.30
2022-12-01T09:02:07.343Z,16.35
2022-12-01T09:04:34.111Z,17.80
2022-12-01T09:07:00.912Z,17.53
2022-12-01T09:09:28.747Z,14.32
2022-12-01T09:11:56.043Z,14.20
2022-12-01T09:14:23.768Z,15.68
2022-12-01T09:16:51.496Z,13.65
2022-12-01T09:19:24.203Z,12.70
2022-12-01T09:21:51.829Z,15.32
2022-12-01T09:24:18.564Z,13.93
2022-12-01T09:26:45.360Z,15.18
2022-12-01T09:29:14.310Z,15.05
2022-12-01T09:31:42.718Z,11.87
2022-12-01T09:34:18.544Z,17.05
2022-12-01T09:36:47.153Z,17.23
2022-12-01T09:39:19.231Z,15.07
2022-12-01T09:41:58.482Z,14.98
2022-12-01T09:44:31.582Z,13.33
2022-12-01T09:47:22.471Z,12.18
2022-12-01T09:50:11.184Z,13.62
2022-12-01T09:52:46.476Z,13.20
2022-12-01T09:55:16.131Z,14.50
2022-12-01T09:57:46.773Z,14.87
2022-12-01T10:00:25.475Z,13.80
2022-12-01T10:03:10.449Z,12.65
2022-12-01T10:06:26.250Z,14.07
2022-12-01T10:09:03.140Z,14.07
2022-12-01T10:11:41.009Z,12.40
2022-12-01T10:14:20.040Z,14.20
2022-12-01T10:17:09.532Z,13.77
2022-12-01T10:19:42.931Z,13.88
2022-12-01T10:22:42.829Z,13.20
2022-12-01T10:25:20.829Z,13.60
2022-12-01T10:28:29.083Z,13.60
2022-12-01T10:31:14.631Z,11.48
2022-12-01T10:34:03.062Z,16.60
2022-12-01T10:36:32.561Z,13.70
2022-12-01T10:39:00.179Z,13.23
2022-12-01T10:41:29.969Z,13.80
2022-12-01T10:44:02.493Z,11.93
2022-12-01T10:46:43.421Z,11.73
2022-12-01T10:49:15.995Z,14.90
2022-12-01T10:51:53.416Z,12.63
2022-12-01T10:54:22.106Z,13.13
2022-12-01T10:56:51.006Z,14.85
2022-12-01T10:59:23.920Z,12.52
2022-12-01T11:01:50.891Z,13.77
2022-12-01T11:04:45.613Z,17.10
2022-12-01T11:07:37.045Z,15.73
2022-12-01T11:10:32.937Z,13.52
2022-12-01T11:13:06.367Z,11.50
2022-12-01T11:15:39.824Z,13.40
2022-12-01T11:18:34.951Z,12.17
2022-12-01T11:21:13.038Z,18.20
2022-12-01T11:23:48.274Z,14.80
2022-12-01T11:26:24.976Z,17.33
2022-12-01T11:28:53.245Z,12.95
2022-12-01T11:31:21.913Z,10.67
2022-12-01T11:33:56.745Z,13.57
2022-12-01T11:36:30.086Z,12.95
2022-12-01T11:39:00.678Z,8.68
2022-12-01T11:41:36.490Z,8.45
2022-12-01T11:44:17.178Z,9.07
2022-12-01T11:47:07.740Z,6.57
2022-12-01T11:50:02.291Z,6.90
2022-12-01T11:52:36.435Z,8.32
2022-12-01T11:55:25.114Z,8.30
2022-12-01T11:57:54.714Z,7.80
2022-12-01T12:00:24.937Z,8.98
2022-12-01T12:03:09.782Z,8.60
2022-12-01T12:05:49.904Z,9.18
2022-12-01T12:08:47.996Z,7.37
2022-12-01T12:11:19.611Z,7.43
2022-12-01T12:14:04.699Z,7.72
2022-12-01T12:16:52.901Z,7.47
2022-12-01T12:20:07.282Z,9.90
2022-12-01T12:22:43.600Z,7.95
2022-12-01T12:25:25.588Z,8.47
2022-12-01T12:28:07.983Z,8.35
2022-12-01T12:30:49.271Z,6.18
2022-12-01T12:33:37.465Z,6.85
2022-12-01T12:36:19.281Z,5.82
2022-12-01T12:38:54.839Z,8.07
2022-12-01T12:41:45.472Z,7.70
2022-12-01T12:44:37.231Z,6.40
2022-12-01T12:47:30.585Z,5.57
2022-12-01T12:50:14.775Z,7.32
2022-12-01T12:52:47.043Z,6.67
2022-12-01T12:55:24.683Z,8.23
2022-12-01T12:58:13.031Z,6.45
2022-12-01T13:00:54.174Z,6.15
2022-12-01T13:03:42.633Z,9.02
2022-12-01T13:06:14.671Z,7.07
2022-12-01T13:08:45.487Z,5.62
2022-12-01T13:11:44.199Z,7.80
2022-12-01T13:14:23.005Z,7.35
2022-12-01T13:16:52.568Z,6.22
2022-12-01T13:19:28.786Z,9.83
2022-12-01T13:21:57.049Z,8.40
2022-12-01T13:24:27.642Z,7.55
2022-12-01T13:27:02.001Z,6.07
2022-12-01T13:29:38.383Z,6.57
2022-12-01T13:32:24.329Z,6.07
2022-12-01T13:34:51.278Z,8.25
2022-12-01T13:37:27.662Z,6.43
2022-12-01T13:39:55.636Z,7.90
2022-12-01T13:42:27.036Z,11.50
2022-12-01T13:44:57.389Z,7.13
2022-12-01T13:47:55.818Z,5.97
2022-12-01T13:50:43.051Z,8.80
2022-12-01T13:53:14.616Z,6.57
2022-12-01T13:55:59.784Z,8.27
2022-12-01T13:58:46.101Z,13.60
2022-12-01T14:01:22.887Z,8.80
2022-12-01T14:04:02.622Z,8.02
2022-12-01T14:07:09.716Z,8.68
2022-12-01T14:09:39.753Z,11.02
2022-12-01T14:12:30.290Z,14.80
2022-12-01T14:15:01.647Z,9.63
2022-12-01T14:17:37.804Z,11.70
2022-12-01T14:20:20.748Z,11.27
2022-12-01T14:23:03.135Z,12.65
2022-12-01T14:25:31.720Z,13.77
2022-12-01T14:28:03.246Z,12.45
2022-12-01T14:30:39.084Z,9.07
2022-12-01T14:33:45.039Z,11.32
2022-12-01T14:36:23.958Z,8.93
2022-12-01T14:38:59.669Z,11.77
2022-12-01T14:41:30.349Z,14.27
2022-12-01T14:44:04.051Z,13.18
2022-12-01T14:47:09.876Z,14.40
2022-12-01T14:50:01.184Z,18.17
2022-12-01T14:52:27.871Z,10.87
2022-12-01T14:55:05.064Z,20.65
2022-12-01T14:57:41.614Z,17.92
2022-12-01T15:00:16.605Z,18.62
2022-12-01T15:03:09.002Z,11.30
2022-12-01T15:05:43.454Z,12.67
2022-12-01T15:08:45.754Z,12.50
2022-12-01T15:11:26.632Z,13.15
2022-12-01T15:13:57.626Z,13.50
2022-12-01T15:16:30.586Z,15.48
2022-12-01T15:18:58.070Z,20.10
2022-12-01T15:21:32.233Z,19.37
2022-12-01T15:24:20.128Z,15.43
2022-12-01T15:26:49.397Z,15.60
2022-12-01T15:29:21.385Z,16.50
2022-12-01T15:31:52.358Z,16.53
2022-12-01T15:34:29.784Z,17.23
2022-12-01T15:36:58.255Z,18.80
2022-12-01T15:39:37.308Z,17.45
2022-12-01T15:42:05.105Z,25.20
2022-12-01T15:44:36.754Z,17.07
2022-12-01T15:47:40.854Z,30.77
2022-12-01T15:50:31.272Z,29.70
2022-12-01T15:53:00.979Z,27.37
2022-12-01T15:55:36.230Z,28.92
2022-12-01T15:58:07.888Z,26.27
2022-12-01T16:00:35.249Z,23.30
2022-12-01T16:03:02.509Z,23.87
2022-12-01T16:05:35.593Z,21.55
2022-12-01T16:08:23.677Z,23.60
2022-12-01T16:11:12.266Z,27.33
2022-12-01T16:13:44.290Z,32.85
2022-12-01T16:16:36.294Z,33.38
2022-12-01T16:19:05.967Z,32.13
2022-12-01T16:21:48.159Z,33.00
2022-12-01T16:24:20.039Z,46.73
2022-12-01T16:26:57.407Z,41.65
2022-12-01T16:29:26.783Z,44.00
2022-12-01T16:32:19.344Z,49.70
2022-12-01T16:34:46.554Z,43.05
2022-12-01T16:37:23.944Z,42.87
2022-12-01T16:39:51.170Z,37.92
2022-12-01T16:42:22.832Z,45.10
2022-12-01T16:44:51.612Z,38.53
2022-12-01T16:47:20.736Z,33.30
2022-12-01T16:49:47.749Z,33.60
2022-12-01T16:52:43.034Z,31.15
2022-12-01T16:55:04.313Z,40.03
2022-12-01T16:57:31.171Z,28.80
2022-12-01T16:59:58.112Z,38.72
2022-12-01T17:02:25.336Z,30.87
2022-12-01T17:04:52.537Z,38.55
2022-12-01T17:07:19.917Z,39.13
2022-12-01T17:09:46.819Z,42.97
2022-12-01T17:12:13.520Z,34.20
2022-12-01T17:14:40.295Z,38.17
2022-12-01T17:17:07.444Z,44.38
2022-12-01T17:19:35.595Z,34.83
2022-12-01T17:22:02.415Z,37.60
2022-12-01T17:24:29.139Z,34.17
2022-12-01T17:26:56.254Z,37.33
2022-12-01T17:29:23.425Z,43.22
2022-12-01T17:31:50.680Z,32.75
2022-12-01T17:34:18.136Z,37.88
2022-12-01T17:36:45.625Z,44.60
2022-12-01T17:39:12.651Z,51.10
2022-12-01T17:41:41.004Z,46.00
2022-12-01T17:44:08.072Z,55.92
2022-12-01T17:46:35.345Z,46.05
2022-12-01T17:49:08.908Z,50.22
2022-12-01T17:51:36.810Z,47.20
2022-12-01T17:54:04.096Z,60.63
2022-12-01T17:56:31.088Z,58.17
2022-12-01T17:58:57.864Z,61.25
2022-12-01T18:01:29.947Z,63.87
2022-12-01T18:03:57.985Z,60.60
2022-12-01T18:06:26.068Z,62.92
2022-12-01T18:08:53.666Z,70.18
2022-12-01T18:11:21.094Z,67.18
2022-12-01T18:13:50.545Z,69.10
2022-12-01T18:16:20.574Z,69.77
2022-12-01T18:18:48.165Z,58.92
2022-12-01T18:21:17.853Z,69.55
